Spring Mountain Youth Camp, Nevada Weather observations

Data are for 60 minute period ending at time listed.
 Day   Time   Solar   Ave.   Ave.  Ave.  Vector  Max.   Baro.   Total    
  of    of     Rad.   Air    Rel.  Wind   Wind   Wind  Press.  Precip.   
Year   Day            Temp.  Hum.  Speed  Dir.   Gust                    
2015   (PST)  Kw/m2    F      %     mph   deg.    mph    mb.     in.     
-------------------------------------------------------------------------
 208   17:00   0.47   70.9    17    4.0    24    14.2   792.6    0.00 
 208   18:00   0.25   70.0    18    3.1   333     9.4   792.7    0.00 
 208   19:00   0.04   64.7    19    2.4    22     7.9   793.0    0.00 
 208   20:00   0.00   61.7    15    0.7   336     4.5   793.1    0.00 
 208   21:00   0.00   61.2    17    0.9   342     3.5   793.4    0.00 
 208   22:00   0.00   60.4    17    0.9    22     4.3   793.6    0.00 
 208   23:00   0.00   59.3    18    1.2    24     2.9   793.6    0.00 
 209    0:00   0.00   59.4    14    1.0   352     3.1   793.6    0.00 
 209    1:00   0.00   59.1    14    1.4   326     4.3   793.5    0.00 
 209    2:00   0.00   60.6    15    2.0    30     3.5   793.4    0.00 
 209    3:00   0.00   58.4    15    2.3    14     4.5   793.3    0.00 
 209    4:00   0.00   59.5    16    2.5    38     4.9   793.4    0.00 
 209    5:00   0.00   56.6    18    2.5    28     4.3   793.6    0.00 
 209    6:00   0.02   55.7    21    2.5   101     4.8   793.8    0.00 
 209    7:00   0.29   60.3    19    3.5   137     5.9   794.1    0.00 
 209    8:00   0.32   62.8    19    6.0   159    12.0   794.5    0.00 
 209    9:00   0.61   64.3    20    7.4   154    14.8   794.6    0.00 
 209   10:00   0.86   65.3    20    8.2   137    18.4   794.8    0.00 
 209   11:00   0.97   66.3    21    9.2   138    19.6   794.9    0.00 
 209   12:00   1.03   67.6    20    7.9   136    19.7   795.0    0.00 
 209   13:00   1.02   69.1    19    8.6   148    20.5   794.9    0.00 
 209   14:00   0.96   69.8    19    7.4   140    20.5   794.9    0.00 
 209   15:00   0.84   70.3    18    6.5   132    17.9   794.7    0.00 
 209   16:00   0.67   71.2    18    5.2   134    14.8   794.4    0.00 

Return to Spring Mountain Youth Camp graphs page.


Western Regional Climate Center,wrcc@dri.edu